Terminal Aerodrome Forecast
Issued by NWS

Home | Current Version | Previous Version | Text Only | Print | Product List | Glossary On
Versions: 1 2 3 4 5 6 7 8 9 10 11 12 13 14 15 16 17 18 19 20 21
000
FTUS44 KCRP 270533
TAFLRD
TAF
KLRD 270533Z 2706/2806 17010KT P6SM SCT250
     FM270900 15010KT P6SM SCT015 BKN150
      TEMPO 2710/2714 BKN015
     FM271500 18012KT P6SM SCT025 BKN200
     FM272000 20007KT P6SM SCT050=

USA.gov is the U.S. government's official web portal to all federal, state and local government web resources and services.